TimeCDT,TemperatureF,Dew PointF,Humidity,Sea Level PressureIn,VisibilityMPH,Wind Direction,Wind SpeedMPH,Gust SpeedMPH,PrecipitationIn,Events,Conditions,WindDirDegrees,DateUTC
12:15 AM,69.8,62.6,78,29.91,10.0,South,5.8,-,N/A,,Clear,170,2013-06-09 05:15:00
12:35 AM,68.0,62.6,83,29.92,10.0,South,5.8,-,N/A,,Clear,170,2013-06-09 05:35:00
12:55 AM,68.0,62.6,83,29.91,10.0,SSE,5.8,-,N/A,,Clear,160,2013-06-09 05:55:00
1:15 AM,68.0,62.6,83,29.91,10.0,South,6.9,-,N/A,,Clear,180,2013-06-09 06:15:00
1:35 AM,68.0,62.6,83,29.89,10.0,South,9.2,-,N/A,,Clear,170,2013-06-09 06:35:00
1:55 AM,69.8,60.8,73,29.87,10.0,SSE,11.5,-,N/A,,Clear,150,2013-06-09 06:55:00
2:15 AM,69.8,60.8,73,29.85,10.0,SE,11.5,16.1,N/A,,Clear,140,2013-06-09 07:15:00
2:35 AM,69.8,60.8,73,29.90,10.0,SW,4.6,-,N/A,,Clear,230,2013-06-09 07:35:00
2:55 AM,68.0,60.8,78,29.89,10.0,South,5.8,-,N/A,,Clear,170,2013-06-09 07:55:00
3:15 AM,68.0,60.8,78,29.87,10.0,SSE,5.8,-,N/A,,Clear,150,2013-06-09 08:15:00
3:35 AM,68.0,59.0,73,29.87,10.0,SSE,4.6,-,N/A,,Clear,160,2013-06-09 08:35:00
3:55 AM,68.0,59.0,73,29.86,10.0,SSE,4.6,-,N/A,,Clear,160,2013-06-09 08:55:00
4:15 AM,68.0,60.8,78,29.86,10.0,SSE,5.8,-,N/A,,Clear,160,2013-06-09 09:15:00
4:35 AM,66.2,60.8,83,29.85,10.0,SSE,8.1,-,N/A,,Clear,150,2013-06-09 09:35:00
4:55 AM,66.2,60.8,83,29.86,10.0,SE,5.8,-,N/A,,Clear,140,2013-06-09 09:55:00
5:15 AM,66.2,60.8,83,29.86,10.0,SE,5.8,-,N/A,,Clear,140,2013-06-09 10:15:00
5:35 AM,66.2,60.8,83,29.86,10.0,Calm,Calm,-,N/A,,Clear,0,2013-06-09 10:35:00
5:55 AM,64.4,60.8,88,29.87,10.0,Calm,Calm,-,N/A,,Clear,0,2013-06-09 10:55:00
6:15 AM,64.4,60.8,88,29.88,10.0,Calm,Calm,-,N/A,,Clear,0,2013-06-09 11:15:00
6:35 AM,62.6,59.0,88,29.88,10.0,SSW,3.5,-,N/A,,Clear,210,2013-06-09 11:35:00
6:55 AM,62.6,60.8,94,29.88,10.0,WSW,3.5,-,N/A,Thunderstorm,Clear,240,2013-06-09 11:55:00
7:15 AM,62.6,59.0,88,29.88,10.0,Calm,Calm,-,N/A,,Clear,0,2013-06-09 12:15:00
7:35 AM,66.2,60.8,83,29.88,10.0,Calm,Calm,-,N/A,,Clear,0,2013-06-09 12:35:00
7:55 AM,68.0,62.6,83,29.88,10.0,WSW,4.6,-,N/A,,Clear,250,2013-06-09 12:55:00
8:15 AM,69.8,62.6,78,29.89,10.0,WNW,9.2,-,N/A,,Clear,290,2013-06-09 13:15:00
8:35 AM,68.0,62.6,83,29.90,10.0,WNW,5.8,-,N/A,,Clear,290,2013-06-09 13:35:00
8:55 AM,69.8,62.6,78,29.90,10.0,West,8.1,-,N/A,,Clear,280,2013-06-09 13:55:00
9:15 AM,71.6,62.6,73,29.91,10.0,WNW,13.8,-,N/A,,Clear,290,2013-06-09 14:15:00
9:35 AM,73.4,64.4,73,29.92,10.0,WNW,12.7,18.4,N/A,,Clear,290,2013-06-09 14:35:00
9:55 AM,73.4,64.4,73,29.93,10.0,NW,8.1,-,N/A,,Clear,310,2013-06-09 14:55:00
10:15 AM,75.2,64.4,69,29.93,10.0,West,13.8,-,N/A,,Scattered Clouds,280,2013-06-09 15:15:00
10:35 AM,73.4,64.4,73,29.93,10.0,WNW,11.5,16.1,N/A,,Mostly Cloudy,290,2013-06-09 15:35:00
10:55 AM,77.0,64.4,65,29.93,10.0,WNW,6.9,-,N/A,,Scattered Clouds,300,2013-06-09 15:55:00
11:15 AM,77.0,64.4,65,29.93,10.0,West,5.8,-,N/A,,Scattered Clouds,270,2013-06-09 16:15:00
11:35 AM,77.0,64.4,65,29.93,10.0,NNW,6.9,-,N/A,,Scattered Clouds,330,2013-06-09 16:35:00
11:55 AM,77.0,64.4,65,29.93,10.0,WNW,6.9,-,N/A,,Scattered Clouds,300,2013-06-09 16:55:00
12:15 PM,78.8,62.6,57,29.93,10.0,Calm,Calm,-,N/A,,Scattered Clouds,0,2013-06-09 17:15:00
12:35 PM,78.8,62.6,57,29.94,10.0,NNW,8.1,-,N/A,,Clear,330,2013-06-09 17:35:00
12:55 PM,78.8,62.6,57,29.93,10.0,NW,10.4,-,N/A,,Clear,320,2013-06-09 17:55:00
1:15 PM,78.8,60.8,54,29.93,10.0,WNW,5.8,9.2,N/A,,Clear,290,2013-06-09 18:15:00
1:35 PM,80.6,59.0,48,29.93,10.0,North,6.9,-,N/A,,Clear,350,2013-06-09 18:35:00
1:55 PM,80.6,57.2,45,29.92,10.0,North,8.1,-,N/A,,Clear,10,2013-06-09 18:55:00
2:15 PM,80.6,59.0,48,29.92,10.0,NNW,4.6,-,N/A,,Clear,330,2013-06-09 19:15:00
2:35 PM,80.6,59.0,48,29.92,10.0,NW,6.9,-,N/A,,Clear,310,2013-06-09 19:35:00
2:55 PM,80.6,55.4,42,29.92,10.0,NW,6.9,-,N/A,,Clear,320,2013-06-09 19:55:00
3:15 PM,80.6,55.4,42,29.91,10.0,NNW,4.6,-,N/A,,Clear,330,2013-06-09 20:15:00
3:35 PM,80.6,59.0,48,29.91,10.0,West,5.8,-,N/A,,Clear,270,2013-06-09 20:35:00
3:55 PM,82.4,53.6,37,29.90,10.0,NW,5.8,-,N/A,,Clear,320,2013-06-09 20:55:00
4:15 PM,82.4,59.0,45,29.90,10.0,Calm,Calm,-,N/A,,Clear,0,2013-06-09 21:15:00
4:35 PM,82.4,57.2,42,29.89,10.0,WNW,5.8,-,N/A,,Clear,290,2013-06-09 21:35:00
4:55 PM,82.4,55.4,39,29.89,10.0,West,5.8,-,N/A,,Clear,280,2013-06-09 21:55:00
5:15 PM,82.4,55.4,39,29.88,10.0,WSW,4.6,-,N/A,,Clear,240,2013-06-09 22:15:00
5:35 PM,82.4,59.0,45,29.88,10.0,WSW,6.9,-,N/A,,Clear,250,2013-06-09 22:35:00
5:55 PM,82.4,55.4,39,29.88,10.0,WSW,3.5,-,N/A,,Clear,240,2013-06-09 22:55:00
6:15 PM,82.4,55.4,39,29.87,10.0,West,3.5,-,N/A,,Clear,270,2013-06-09 23:15:00
6:35 PM,82.4,59.0,45,29.87,10.0,SW,4.6,-,N/A,,Clear,220,2013-06-09 23:35:00
6:55 PM,82.4,59.0,45,29.87,10.0,Calm,Calm,-,N/A,,Clear,0,2013-06-09 23:55:00
7:15 PM,82.4,59.0,45,29.87,10.0,SW,3.5,-,N/A,,Clear,230,2013-06-10 00:15:00
7:35 PM,80.6,60.8,51,29.87,10.0,SW,3.5,-,N/A,,Clear,230,2013-06-10 00:35:00
7:55 PM,78.8,62.6,57,29.87,10.0,SW,3.5,-,N/A,,Clear,220,2013-06-10 00:55:00
8:15 PM,77.0,64.4,65,29.87,10.0,SSW,3.5,-,N/A,,Clear,210,2013-06-10 01:15:00
8:35 PM,73.4,64.4,73,29.87,10.0,SSW,4.6,-,N/A,,Clear,200,2013-06-10 01:35:00
8:55 PM,71.6,62.6,73,29.87,10.0,South,8.1,-,N/A,,Clear,190,2013-06-10 01:55:00
9:15 PM,71.6,62.6,73,29.87,10.0,South,4.6,-,N/A,,Clear,190,2013-06-10 02:15:00
9:35 PM,69.8,60.8,73,29.88,10.0,South,6.9,-,N/A,,Clear,190,2013-06-10 02:35:00
9:55 PM,69.8,60.8,73,29.88,10.0,South,5.8,-,N/A,,Clear,190,2013-06-10 02:55:00
10:15 PM,69.8,60.8,73,29.88,10.0,South,5.8,-,N/A,,Scattered Clouds,190,2013-06-10 03:15:00
10:35 PM,69.8,59.0,68,29.89,10.0,SSW,4.6,-,N/A,,Clear,200,2013-06-10 03:35:00
10:55 PM,69.8,59.0,68,29.89,10.0,SW,3.5,-,N/A,,Clear,230,2013-06-10 03:55:00
11:15 PM,69.8,59.0,68,29.89,10.0,SW,5.8,-,N/A,,Scattered Clouds,220,2013-06-10 04:15:00
11:35 PM,69.8,59.0,68,29.89,10.0,SSW,6.9,-,N/A,,Scattered Clouds,210,2013-06-10 04:35:00
11:55 PM,69.8,60.8,73,29.89,10.0,SSW,6.9,-,N/A,,Clear,210,2013-06-10 04:55:00